TimeMST,TemperatureF,Dew PointF,Humidity,Sea Level PressureIn,VisibilityMPH,Wind Direction,Wind SpeedMPH,Gust SpeedMPH,PrecipitationIn,Events,Conditions,WindDirDegrees,DateUTC
12:53 AM,39.0,21.9,50,29.86,10.0,SW,18.4,24.2,N/A,,Clear,220,2013-01-10 07:53:00
1:53 AM,39.0,21.0,49,29.83,10.0,South,17.3,-,N/A,,Clear,190,2013-01-10 08:53:00
2:53 AM,37.0,21.0,52,29.81,10.0,SSW,12.7,21.9,N/A,,Clear,210,2013-01-10 09:53:00
3:53 AM,37.0,21.0,52,29.78,10.0,SSW,12.7,-,N/A,,Clear,210,2013-01-10 10:53:00
4:53 AM,39.0,19.0,45,29.73,10.0,SSW,15.0,-,N/A,,Clear,200,2013-01-10 11:53:00
5:53 AM,37.0,19.0,48,29.72,10.0,SW,11.5,-,N/A,,Clear,220,2013-01-10 12:53:00
6:53 AM,42.1,19.0,40,29.68,10.0,South,25.3,34.5,N/A,,Overcast,170,2013-01-10 13:53:00
7:53 AM,41.0,19.0,41,29.68,10.0,South,27.6,36.8,N/A,,Scattered Clouds,180,2013-01-10 14:53:00
8:53 AM,39.9,19.0,43,29.64,10.0,South,28.8,35.7,N/A,,Clear,170,2013-01-10 15:53:00
9:53 AM,42.1,19.9,41,29.60,10.0,South,28.8,41.4,N/A,,Clear,170,2013-01-10 16:53:00
10:53 AM,42.1,19.9,41,29.59,10.0,South,31.1,43.7,N/A,,Clear,170,2013-01-10 17:53:00
11:53 AM,43.0,21.0,42,29.55,10.0,South,24.2,39.1,N/A,,Partly Cloudy,180,2013-01-10 18:53:00
12:53 PM,42.1,21.9,45,29.51,10.0,South,24.2,35.7,N/A,,Overcast,190,2013-01-10 19:53:00
1:53 PM,41.0,23.0,49,29.50,10.0,SW,21.9,31.1,N/A,,Overcast,220,2013-01-10 20:53:00
2:53 PM,39.0,24.1,55,29.51,10.0,SSW,21.9,38.0,N/A,,Overcast,200,2013-01-10 21:53:00
3:53 PM,37.9,25.0,60,29.49,10.0,SSW,20.7,33.4,N/A,,Overcast,210,2013-01-10 22:53:00
4:53 PM,37.0,24.1,59,29.49,10.0,SSW,18.4,34.5,0.00,,Overcast,210,2013-01-10 23:53:00
5:10 PM,33.8,26.6,75,29.57,1.5,West,23.0,42.6,0.00,Snow,Light Snow,270,2013-01-11 00:10:00
5:13 PM,28.4,24.8,86,29.58,0.8,West,19.6,40.3,0.00,Snow,Light Snow,280,2013-01-11 00:13:00
5:19 PM,26.6,24.8,93,29.58,0.2,SW,11.5,29.9,0.01,Fog-Snow,Heavy Snow,220,2013-01-11 00:19:00
5:28 PM,26.6,24.8,93,29.59,0.2,West,16.1,23.0,0.03,Fog-Snow,Heavy Snow,270,2013-01-11 00:28:00
5:35 PM,26.6,24.8,93,29.58,0.2,West,13.8,23.0,0.04,Fog-Snow,Heavy Snow,270,2013-01-11 00:35:00
5:53 PM,25.0,24.1,96,29.62,0.2,West,6.9,16.1,0.10,Fog-Snow,Heavy Snow,270,2013-01-11 00:53:00
6:20 PM,24.8,24.8,100,29.60,0.5,Calm,Calm,-,0.07,Fog-Snow,Snow,0,2013-01-11 01:20:00
6:28 PM,24.8,23.0,93,29.59,2.0,Calm,Calm,-,0.07,Snow,Light Snow,0,2013-01-11 01:28:00
6:35 PM,24.8,21.2,86,29.60,5.0,Calm,Calm,-,0.07,Snow,Light Snow,0,2013-01-11 01:35:00
6:53 PM,25.0,23.0,92,29.60,9.0,SSW,3.5,-,0.08,,Overcast,200,2013-01-11 01:53:00
7:00 PM,24.8,21.2,86,29.61,10.0,SW,5.8,-,N/A,,Overcast,220,2013-01-11 02:00:00
7:14 PM,24.8,19.4,80,29.62,10.0,SW,8.1,-,N/A,,Overcast,230,2013-01-11 02:14:00
7:53 PM,24.1,19.0,81,29.62,10.0,South,10.4,-,0.00,,Overcast,180,2013-01-11 02:53:00
8:53 PM,23.0,17.1,78,29.61,10.0,South,10.4,-,N/A,,Overcast,190,2013-01-11 03:53:00
9:53 PM,21.9,15.1,75,29.62,10.0,SW,9.2,-,N/A,,Overcast,220,2013-01-11 04:53:00
10:53 PM,21.0,15.1,78,29.63,10.0,SW,9.2,-,N/A,,Overcast,230,2013-01-11 05:53:00
11:53 PM,19.9,14.0,78,29.64,10.0,SW,10.4,-,N/A,,Overcast,220,2013-01-11 06:53:00